sensor_id;sensor_type;location;lat;lon;timestamp;P1;durP1;ratioP1;P2;durP2;ratioP2
43771;SDS011;59066;54.782;32.024;2022-10-16T00:01:35;6.03;;;3.10;;
43771;SDS011;59066;54.782;32.024;2022-10-16T00:04:02;6.25;;;3.50;;
43771;SDS011;59066;54.782;32.024;2022-10-16T00:06:30;8.60;;;3.80;;
43771;SDS011;59066;54.782;32.024;2022-10-16T00:08:58;6.63;;;3.60;;
43771;SDS011;59066;54.782;32.024;2022-10-16T00:11:28;4.97;;;3.30;;
43771;SDS011;59066;54.782;32.024;2022-10-16T00:13:59;10.65;;;3.67;;
43771;SDS011;59066;54.782;32.024;2022-10-16T00:16:27;6.75;;;3.63;;
43771;SDS011;59066;54.782;32.024;2022-10-16T00:18:56;5.53;;;3.60;;
43771;SDS011;59066;54.782;32.024;2022-10-16T00:21:25;6.10;;;3.33;;
43771;SDS011;59066;54.782;32.024;2022-10-16T00:24:13;5.53;;;3.70;;
43771;SDS011;59066;54.782;32.024;2022-10-16T00:26:40;7.90;;;3.47;;
43771;SDS011;59066;54.782;32.024;2022-10-16T00:29:08;8.07;;;3.80;;
43771;SDS011;59066;54.782;32.024;2022-10-16T00:31:35;6.72;;;3.50;;
43771;SDS011;59066;54.782;32.024;2022-10-16T00:34:03;14.25;;;3.60;;
43771;SDS011;59066;54.782;32.024;2022-10-16T00:36:30;9.25;;;3.20;;
43771;SDS011;59066;54.782;32.024;2022-10-16T00:38:58;5.07;;;3.65;;
43771;SDS011;59066;54.782;32.024;2022-10-16T00:41:28;9.43;;;3.78;;
43771;SDS011;59066;54.782;32.024;2022-10-16T00:43:56;6.47;;;3.30;;
43771;SDS011;59066;54.782;32.024;2022-10-16T00:46:39;7.43;;;3.53;;
43771;SDS011;59066;54.782;32.024;2022-10-16T00:49:13;9.63;;;3.08;;
43771;SDS011;59066;54.782;32.024;2022-10-16T00:51:52;10.95;;;3.33;;
43771;SDS011;59066;54.782;32.024;2022-10-16T00:54:21;6.85;;;3.47;;
43771;SDS011;59066;54.782;32.024;2022-10-16T00:56:51;5.88;;;3.30;;
43771;SDS011;59066;54.782;32.024;2022-10-16T01:01:53;5.43;;;3.17;;
43771;SDS011;59066;54.782;32.024;2022-10-16T01:04:22;6.72;;;3.17;;
43771;SDS011;59066;54.782;32.024;2022-10-16T01:09:39;6.55;;;3.50;;
43771;SDS011;59066;54.782;32.024;2022-10-16T01:13:03;24.73;;;4.90;;
43771;SDS011;59066;54.782;32.024;2022-10-16T01:15:11;9.50;;;3.40;;
43771;SDS011;59066;54.782;32.024;2022-10-16T01:17:51;4.47;;;3.13;;
43771;SDS011;59066;54.782;32.024;2022-10-16T01:20:24;6.75;;;3.17;;
43771;SDS011;59066;54.782;32.024;2022-10-16T01:23:26;9.15;;;3.55;;
43771;SDS011;59066;54.782;32.024;2022-10-16T01:31:50;7.88;;;4.00;;
43771;SDS011;59066;54.782;32.024;2022-10-16T01:34:32;5.63;;;3.22;;
43771;SDS011;59066;54.782;32.024;2022-10-16T01:37:08;6.28;;;3.17;;
43771;SDS011;59066;54.782;32.024;2022-10-16T01:39:39;7.13;;;3.40;;
43771;SDS011;59066;54.782;32.024;2022-10-16T01:42:11;8.88;;;3.38;;
43771;SDS011;59066;54.782;32.024;2022-10-16T01:44:45;5.70;;;3.58;;
43771;SDS011;59066;54.782;32.024;2022-10-16T01:47:14;7.40;;;3.75;;
43771;SDS011;59066;54.782;32.024;2022-10-16T01:49:44;8.35;;;3.72;;
43771;SDS011;59066;54.782;32.024;2022-10-16T01:52:14;6.70;;;3.38;;
43771;SDS011;59066;54.782;32.024;2022-10-16T01:54:46;6.78;;;3.50;;
43771;SDS011;59066;54.782;32.024;2022-10-16T01:57:15;7.32;;;3.38;;
43771;SDS011;59066;54.782;32.024;2022-10-16T01:59:46;6.85;;;3.00;;
43771;SDS011;59066;54.782;32.024;2022-10-16T02:02:16;6.28;;;3.35;;
43771;SDS011;59066;54.782;32.024;2022-10-16T02:04:46;7.13;;;3.40;;
43771;SDS011;59066;54.782;32.024;2022-10-16T02:07:18;7.00;;;3.92;;
43771;SDS011;59066;54.782;32.024;2022-10-16T02:09:46;6.40;;;4.05;;
43771;SDS011;59066;54.782;32.024;2022-10-16T02:12:15;5.43;;;3.40;;
43771;SDS011;59066;54.782;32.024;2022-10-16T02:14:50;6.63;;;3.47;;
43771;SDS011;59066;54.782;32.024;2022-10-16T02:17:18;7.75;;;3.40;;
43771;SDS011;59066;54.782;32.024;2022-10-16T02:19:47;8.50;;;3.35;;
43771;SDS011;59066;54.782;32.024;2022-10-16T02:22:27;6.78;;;3.42;;
43771;SDS011;59066;54.782;32.024;2022-10-16T02:24:58;14.32;;;4.00;;
43771;SDS011;59066;54.782;32.024;2022-10-16T02:30:13;7.30;;;3.85;;
43771;SDS011;59066;54.782;32.024;2022-10-16T02:32:48;7.60;;;3.80;;
43771;SDS011;59066;54.782;32.024;2022-10-16T02:35:17;7.25;;;3.75;;
43771;SDS011;59066;54.782;32.024;2022-10-16T02:37:46;8.77;;;3.88;;
43771;SDS011;59066;54.782;32.024;2022-10-16T02:40:15;7.78;;;3.92;;
43771;SDS011;59066;54.782;32.024;2022-10-16T02:42:49;6.75;;;4.07;;
43771;SDS011;59066;54.782;32.024;2022-10-16T02:45:18;7.95;;;4.22;;
43771;SDS011;59066;54.782;32.024;2022-10-16T02:47:46;7.90;;;3.80;;
43771;SDS011;59066;54.782;32.024;2022-10-16T02:50:14;8.70;;;4.25;;
43771;SDS011;59066;54.782;32.024;2022-10-16T02:52:42;7.57;;;3.90;;
43771;SDS011;59066;54.782;32.024;2022-10-16T02:55:09;7.00;;;3.67;;
43771;SDS011;59066;54.782;32.024;2022-10-16T02:57:37;6.88;;;3.72;;
43771;SDS011;59066;54.782;32.024;2022-10-16T03:00:07;7.15;;;4.20;;
43771;SDS011;59066;54.782;32.024;2022-10-16T03:02:36;8.27;;;3.95;;
43771;SDS011;59066;54.782;32.024;2022-10-16T03:05:04;6.38;;;4.03;;
43771;SDS011;59066;54.782;32.024;2022-10-16T03:07:37;9.35;;;3.85;;
43771;SDS011;59066;54.782;32.024;2022-10-16T03:10:05;10.52;;;4.40;;
43771;SDS011;59066;54.782;32.024;2022-10-16T03:12:33;11.02;;;4.22;;
43771;SDS011;59066;54.782;32.024;2022-10-16T03:15:00;6.15;;;4.30;;
43771;SDS011;59066;54.782;32.024;2022-10-16T03:17:28;7.03;;;4.10;;
43771;SDS011;59066;54.782;32.024;2022-10-16T03:19:55;7.70;;;4.32;;
43771;SDS011;59066;54.782;32.024;2022-10-16T03:22:22;9.63;;;4.47;;
43771;SDS011;59066;54.782;32.024;2022-10-16T03:24:50;6.95;;;4.45;;
43771;SDS011;59066;54.782;32.024;2022-10-16T03:27:17;11.93;;;5.30;;
43771;SDS011;59066;54.782;32.024;2022-10-16T03:29:44;9.80;;;4.47;;
43771;SDS011;59066;54.782;32.024;2022-10-16T03:32:12;10.25;;;4.47;;
43771;SDS011;59066;54.782;32.024;2022-10-16T03:34:39;10.40;;;5.20;;
43771;SDS011;59066;54.782;32.024;2022-10-16T03:37:07;10.27;;;4.78;;
43771;SDS011;59066;54.782;32.024;2022-10-16T03:39:34;13.35;;;5.75;;
43771;SDS011;59066;54.782;32.024;2022-10-16T03:42:01;12.98;;;4.43;;
43771;SDS011;59066;54.782;32.024;2022-10-16T03:44:29;16.75;;;6.03;;
43771;SDS011;59066;54.782;32.024;2022-10-16T03:46:56;10.60;;;5.07;;
43771;SDS011;59066;54.782;32.024;2022-10-16T03:49:24;7.72;;;4.55;;
43771;SDS011;59066;54.782;32.024;2022-10-16T03:51:51;12.10;;;5.57;;
43771;SDS011;59066;54.782;32.024;2022-10-16T03:54:18;10.20;;;5.10;;
43771;SDS011;59066;54.782;32.024;2022-10-16T03:56:46;10.70;;;5.13;;
43771;SDS011;59066;54.782;32.024;2022-10-16T03:59:13;18.08;;;5.30;;
43771;SDS011;59066;54.782;32.024;2022-10-16T04:01:40;9.02;;;4.10;;
43771;SDS011;59066;54.782;32.024;2022-10-16T04:04:08;10.50;;;4.85;;
43771;SDS011;59066;54.782;32.024;2022-10-16T04:06:35;9.00;;;5.32;;
43771;SDS011;59066;54.782;32.024;2022-10-16T04:09:02;14.80;;;5.85;;
43771;SDS011;59066;54.782;32.024;2022-10-16T04:11:30;11.60;;;5.43;;
43771;SDS011;59066;54.782;32.024;2022-10-16T04:13:57;15.93;;;5.82;;
43771;SDS011;59066;54.782;32.024;2022-10-16T04:16:24;15.27;;;6.03;;
43771;SDS011;59066;54.782;32.024;2022-10-16T04:18:52;10.00;;;6.13;;
43771;SDS011;59066;54.782;32.024;2022-10-16T04:21:19;17.75;;;6.28;;
43771;SDS011;59066;54.782;32.024;2022-10-16T04:23:46;13.63;;;5.90;;
43771;SDS011;59066;54.782;32.024;2022-10-16T04:26:14;11.85;;;5.50;;
43771;SDS011;59066;54.782;32.024;2022-10-16T04:28:41;10.65;;;5.22;;
43771;SDS011;59066;54.782;32.024;2022-10-16T04:31:09;23.77;;;6.80;;
43771;SDS011;59066;54.782;32.024;2022-10-16T04:33:37;8.52;;;5.10;;
43771;SDS011;59066;54.782;32.024;2022-10-16T04:36:04;7.68;;;5.38;;
43771;SDS011;59066;54.782;32.024;2022-10-16T04:38:31;9.27;;;5.60;;
43771;SDS011;59066;54.782;32.024;2022-10-16T04:40:59;10.07;;;4.40;;
43771;SDS011;59066;54.782;32.024;2022-10-16T04:43:26;20.45;;;6.10;;
43771;SDS011;59066;54.782;32.024;2022-10-16T04:46:14;10.82;;;5.75;;
43771;SDS011;59066;54.782;32.024;2022-10-16T04:48:41;11.57;;;5.47;;
43771;SDS011;59066;54.782;32.024;2022-10-16T04:51:08;14.15;;;5.82;;
43771;SDS011;59066;54.782;32.024;2022-10-16T04:53:37;18.15;;;6.65;;
43771;SDS011;59066;54.782;32.024;2022-10-16T04:56:04;9.63;;;6.43;;
43771;SDS011;59066;54.782;32.024;2022-10-16T04:58:32;13.50;;;6.65;;
43771;SDS011;59066;54.782;32.024;2022-10-16T05:00:59;13.95;;;5.75;;
43771;SDS011;59066;54.782;32.024;2022-10-16T05:03:27;15.05;;;6.72;;
43771;SDS011;59066;54.782;32.024;2022-10-16T05:06:14;10.15;;;6.03;;
43771;SDS011;59066;54.782;32.024;2022-10-16T05:08:41;13.75;;;5.47;;
43771;SDS011;59066;54.782;32.024;2022-10-16T05:11:09;15.18;;;5.78;;
43771;SDS011;59066;54.782;32.024;2022-10-16T05:13:36;11.50;;;5.97;;
43771;SDS011;59066;54.782;32.024;2022-10-16T05:16:03;10.93;;;5.82;;
43771;SDS011;59066;54.782;32.024;2022-10-16T05:18:31;10.30;;;6.60;;
43771;SDS011;59066;54.782;32.024;2022-10-16T05:20:58;13.00;;;6.50;;
43771;SDS011;59066;54.782;32.024;2022-10-16T05:23:26;11.18;;;5.95;;
43771;SDS011;59066;54.782;32.024;2022-10-16T05:25:54;14.63;;;6.85;;
43771;SDS011;59066;54.782;32.024;2022-10-16T05:28:25;15.40;;;6.70;;
43771;SDS011;59066;54.782;32.024;2022-10-16T05:30:54;12.52;;;6.70;;
43771;SDS011;59066;54.782;32.024;2022-10-16T05:33:22;12.90;;;6.70;;
43771;SDS011;59066;54.782;32.024;2022-10-16T05:35:51;10.65;;;6.38;;
43771;SDS011;59066;54.782;32.024;2022-10-16T05:38:19;13.85;;;6.60;;
43771;SDS011;59066;54.782;32.024;2022-10-16T05:40:55;12.68;;;6.55;;
43771;SDS011;59066;54.782;32.024;2022-10-16T05:43:23;14.55;;;7.03;;
43771;SDS011;59066;54.782;32.024;2022-10-16T05:46:24;9.98;;;6.72;;
43771;SDS011;59066;54.782;32.024;2022-10-16T05:48:44;12.35;;;7.03;;
43771;SDS011;59066;54.782;32.024;2022-10-16T05:51:12;15.88;;;8.05;;
43771;SDS011;59066;54.782;32.024;2022-10-16T05:53:41;12.10;;;7.40;;
43771;SDS011;59066;54.782;32.024;2022-10-16T05:56:10;17.20;;;8.38;;
43771;SDS011;59066;54.782;32.024;2022-10-16T05:58:38;14.43;;;6.60;;
43771;SDS011;59066;54.782;32.024;2022-10-16T06:01:11;11.48;;;7.38;;
43771;SDS011;59066;54.782;32.024;2022-10-16T06:03:40;10.65;;;6.47;;
43771;SDS011;59066;54.782;32.024;2022-10-16T06:06:09;11.10;;;6.50;;
43771;SDS011;59066;54.782;32.024;2022-10-16T06:08:42;11.25;;;6.43;;
43771;SDS011;59066;54.782;32.024;2022-10-16T06:11:11;13.32;;;5.95;;
43771;SDS011;59066;54.782;32.024;2022-10-16T06:13:41;10.30;;;6.38;;
43771;SDS011;59066;54.782;32.024;2022-10-16T06:16:09;13.88;;;7.38;;
43771;SDS011;59066;54.782;32.024;2022-10-16T06:18:38;14.02;;;6.43;;
43771;SDS011;59066;54.782;32.024;2022-10-16T06:21:09;16.40;;;7.10;;
43771;SDS011;59066;54.782;32.024;2022-10-16T06:23:39;12.95;;;7.03;;
43771;SDS011;59066;54.782;32.024;2022-10-16T06:26:10;9.75;;;5.80;;
43771;SDS011;59066;54.782;32.024;2022-10-16T06:28:42;15.40;;;5.88;;
43771;SDS011;59066;54.782;32.024;2022-10-16T06:31:10;13.55;;;6.72;;
43771;SDS011;59066;54.782;32.024;2022-10-16T06:33:38;11.52;;;6.72;;
43771;SDS011;59066;54.782;32.024;2022-10-16T06:36:07;13.07;;;6.43;;
43771;SDS011;59066;54.782;32.024;2022-10-16T06:38:39;15.55;;;7.15;;
43771;SDS011;59066;54.782;32.024;2022-10-16T06:41:09;11.07;;;6.45;;
43771;SDS011;59066;54.782;32.024;2022-10-16T06:43:41;12.10;;;5.95;;
43771;SDS011;59066;54.782;32.024;2022-10-16T06:46:09;10.88;;;6.68;;
43771;SDS011;59066;54.782;32.024;2022-10-16T06:48:38;14.25;;;6.93;;
43771;SDS011;59066;54.782;32.024;2022-10-16T06:51:06;11.38;;;7.15;;
43771;SDS011;59066;54.782;32.024;2022-10-16T06:53:37;10.43;;;6.30;;
43771;SDS011;59066;54.782;32.024;2022-10-16T06:56:27;12.55;;;7.03;;
43771;SDS011;59066;54.782;32.024;2022-10-16T06:58:58;17.30;;;8.18;;
43771;SDS011;59066;54.782;32.024;2022-10-16T07:01:26;13.82;;;7.50;;
43771;SDS011;59066;54.782;32.024;2022-10-16T07:03:54;13.50;;;7.25;;
43771;SDS011;59066;54.782;32.024;2022-10-16T07:06:22;12.88;;;7.10;;
43771;SDS011;59066;54.782;32.024;2022-10-16T07:08:51;14.45;;;7.45;;
43771;SDS011;59066;54.782;32.024;2022-10-16T07:11:20;11.85;;;6.68;;
43771;SDS011;59066;54.782;32.024;2022-10-16T07:13:48;19.83;;;8.07;;
43771;SDS011;59066;54.782;32.024;2022-10-16T07:16:20;20.52;;;7.90;;
43771;SDS011;59066;54.782;32.024;2022-10-16T07:18:49;12.57;;;7.15;;
43771;SDS011;59066;54.782;32.024;2022-10-16T07:21:19;13.10;;;6.72;;
43771;SDS011;59066;54.782;32.024;2022-10-16T07:23:51;12.40;;;7.03;;
43771;SDS011;59066;54.782;32.024;2022-10-16T07:26:19;10.68;;;6.90;;
43771;SDS011;59066;54.782;32.024;2022-10-16T07:28:47;14.15;;;6.80;;
43771;SDS011;59066;54.782;32.024;2022-10-16T07:31:16;13.73;;;8.45;;
43771;SDS011;59066;54.782;32.024;2022-10-16T07:33:45;10.48;;;6.55;;
43771;SDS011;59066;54.782;32.024;2022-10-16T07:36:15;14.43;;;6.68;;
43771;SDS011;59066;54.782;32.024;2022-10-16T07:38:44;11.25;;;6.32;;
43771;SDS011;59066;54.782;32.024;2022-10-16T07:41:13;13.00;;;7.30;;
43771;SDS011;59066;54.782;32.024;2022-10-16T07:43:49;12.35;;;6.53;;
43771;SDS011;59066;54.782;32.024;2022-10-16T07:46:19;15.15;;;6.32;;
43771;SDS011;59066;54.782;32.024;2022-10-16T07:48:47;9.63;;;6.68;;
43771;SDS011;59066;54.782;32.024;2022-10-16T07:51:16;11.05;;;6.43;;
43771;SDS011;59066;54.782;32.024;2022-10-16T07:53:47;11.63;;;6.72;;
43771;SDS011;59066;54.782;32.024;2022-10-16T07:56:15;10.73;;;6.45;;
43771;SDS011;59066;54.782;32.024;2022-10-16T07:58:44;9.98;;;6.68;;
43771;SDS011;59066;54.782;32.024;2022-10-16T08:01:12;21.40;;;7.07;;
43771;SDS011;59066;54.782;32.024;2022-10-16T08:03:42;11.27;;;6.20;;
43771;SDS011;59066;54.782;32.024;2022-10-16T08:06:11;12.45;;;6.32;;
43771;SDS011;59066;54.782;32.024;2022-10-16T08:08:38;14.23;;;7.88;;
43771;SDS011;59066;54.782;32.024;2022-10-16T08:11:05;13.43;;;6.68;;
43771;SDS011;59066;54.782;32.024;2022-10-16T08:13:33;10.98;;;7.22;;
43771;SDS011;59066;54.782;32.024;2022-10-16T08:16:01;12.02;;;6.65;;
43771;SDS011;59066;54.782;32.024;2022-10-16T08:18:38;14.05;;;8.73;;
43771;SDS011;59066;54.782;32.024;2022-10-16T08:21:08;13.68;;;7.25;;
43771;SDS011;59066;54.782;32.024;2022-10-16T08:23:44;18.38;;;7.63;;
43771;SDS011;59066;54.782;32.024;2022-10-16T08:26:11;15.32;;;6.70;;
43771;SDS011;59066;54.782;32.024;2022-10-16T08:28:39;12.32;;;6.93;;
43771;SDS011;59066;54.782;32.024;2022-10-16T08:31:11;12.80;;;7.60;;
43771;SDS011;59066;54.782;32.024;2022-10-16T08:33:40;14.02;;;7.53;;
43771;SDS011;59066;54.782;32.024;2022-10-16T08:36:10;12.25;;;7.57;;
43771;SDS011;59066;54.782;32.024;2022-10-16T08:38:38;16.52;;;8.38;;
43771;SDS011;59066;54.782;32.024;2022-10-16T08:49:15;25.23;;;10.48;;
43771;SDS011;59066;54.782;32.024;2022-10-16T08:51:42;23.30;;;13.88;;
43771;SDS011;59066;54.782;32.024;2022-10-16T08:56:56;13.40;;;8.30;;
43771;SDS011;59066;54.782;32.024;2022-10-16T08:59:27;12.93;;;7.97;;
43771;SDS011;59066;54.782;32.024;2022-10-16T09:01:55;13.63;;;7.07;;
43771;SDS011;59066;54.782;32.024;2022-10-16T09:07:32;19.00;;;8.27;;
43771;SDS011;59066;54.782;32.024;2022-10-16T09:25:56;19.63;;;11.98;;
43771;SDS011;59066;54.782;32.024;2022-10-16T09:28:25;20.65;;;10.63;;
43771;SDS011;59066;54.782;32.024;2022-10-16T09:30:53;13.73;;;9.07;;
43771;SDS011;59066;54.782;32.024;2022-10-16T09:33:23;18.83;;;9.98;;
43771;SDS011;59066;54.782;32.024;2022-10-16T09:35:56;15.52;;;9.85;;
43771;SDS011;59066;54.782;32.024;2022-10-16T09:38:28;19.17;;;11.15;;
43771;SDS011;59066;54.782;32.024;2022-10-16T09:40:58;16.98;;;8.15;;
43771;SDS011;59066;54.782;32.024;2022-10-16T09:46:21;19.38;;;10.40;;
43771;SDS011;59066;54.782;32.024;2022-10-16T09:48:50;14.30;;;7.93;;
43771;SDS011;59066;54.782;32.024;2022-10-16T09:51:20;16.90;;;9.35;;
43771;SDS011;59066;54.782;32.024;2022-10-16T09:53:55;15.10;;;9.48;;
43771;SDS011;59066;54.782;32.024;2022-10-16T09:56:30;17.40;;;8.57;;
43771;SDS011;59066;54.782;32.024;2022-10-16T09:59:01;19.80;;;11.55;;
43771;SDS011;59066;54.782;32.024;2022-10-16T10:01:36;16.58;;;8.20;;
43771;SDS011;59066;54.782;32.024;2022-10-16T10:04:06;11.60;;;6.85;;
43771;SDS011;59066;54.782;32.024;2022-10-16T10:06:35;11.82;;;6.72;;
43771;SDS011;59066;54.782;32.024;2022-10-16T10:11:51;14.00;;;7.50;;
43771;SDS011;59066;54.782;32.024;2022-10-16T10:19:55;13.00;;;6.38;;
43771;SDS011;59066;54.782;32.024;2022-10-16T10:22:26;11.38;;;7.25;;
43771;SDS011;59066;54.782;32.024;2022-10-16T10:25:17;15.98;;;9.57;;
43771;SDS011;59066;54.782;32.024;2022-10-16T10:30:47;46.95;;;27.75;;
43771;SDS011;59066;54.782;32.024;2022-10-16T10:33:28;13.50;;;9.02;;
43771;SDS011;59066;54.782;32.024;2022-10-16T10:39:07;17.88;;;10.90;;
43771;SDS011;59066;54.782;32.024;2022-10-16T10:42:19;20.98;;;12.10;;
43771;SDS011;59066;54.782;32.024;2022-10-16T11:01:50;20.52;;;15.27;;
43771;SDS011;59066;54.782;32.024;2022-10-16T11:04:30;10.07;;;5.78;;
43771;SDS011;59066;54.782;32.024;2022-10-16T11:07:17;11.95;;;8.98;;
43771;SDS011;59066;54.782;32.024;2022-10-16T11:09:59;16.50;;;8.23;;
43771;SDS011;59066;54.782;32.024;2022-10-16T11:12:37;14.32;;;7.05;;
43771;SDS011;59066;54.782;32.024;2022-10-16T11:15:15;15.13;;;8.23;;
43771;SDS011;59066;54.782;32.024;2022-10-16T11:20:32;11.95;;;6.50;;
43771;SDS011;59066;54.782;32.024;2022-10-16T11:23:10;9.73;;;6.45;;
43771;SDS011;59066;54.782;32.024;2022-10-16T11:25:43;12.75;;;6.82;;
43771;SDS011;59066;54.782;32.024;2022-10-16T11:28:19;16.52;;;7.28;;
43771;SDS011;59066;54.782;32.024;2022-10-16T11:30:59;13.60;;;6.07;;
43771;SDS011;59066;54.782;32.024;2022-10-16T11:33:43;11.23;;;7.45;;
43771;SDS011;59066;54.782;32.024;2022-10-16T11:45:13;13.18;;;8.27;;
43771;SDS011;59066;54.782;32.024;2022-10-16T11:47:54;16.60;;;9.68;;
43771;SDS011;59066;54.782;32.024;2022-10-16T11:50:49;16.15;;;10.57;;
43771;SDS011;59066;54.782;32.024;2022-10-16T11:53:41;12.43;;;8.52;;
43771;SDS011;59066;54.782;32.024;2022-10-16T11:56:11;11.50;;;7.93;;
43771;SDS011;59066;54.782;32.024;2022-10-16T12:01:48;17.90;;;9.20;;
43771;SDS011;59066;54.782;32.024;2022-10-16T12:04:34;13.57;;;9.00;;
43771;SDS011;59066;54.782;32.024;2022-10-16T12:09:47;15.77;;;9.57;;
43771;SDS011;59066;54.782;32.024;2022-10-16T12:12:28;15.60;;;9.73;;
43771;SDS011;59066;54.782;32.024;2022-10-16T12:17:53;13.27;;;7.80;;
43771;SDS011;59066;54.782;32.024;2022-10-16T12:20:29;26.70;;;9.20;;
43771;SDS011;59066;54.782;32.024;2022-10-16T12:23:00;14.30;;;7.90;;
43771;SDS011;59066;54.782;32.024;2022-10-16T12:25:33;13.50;;;7.57;;
43771;SDS011;59066;54.782;32.024;2022-10-16T12:28:06;21.15;;;9.43;;
43771;SDS011;59066;54.782;32.024;2022-10-16T12:30:52;19.27;;;9.30;;
43771;SDS011;59066;54.782;32.024;2022-10-16T12:35:50;15.82;;;8.23;;
43771;SDS011;59066;54.782;32.024;2022-10-16T12:40:55;19.83;;;7.53;;
43771;SDS011;59066;54.782;32.024;2022-10-16T12:43:38;14.68;;;9.30;;
43771;SDS011;59066;54.782;32.024;2022-10-16T12:48:38;15.55;;;8.98;;
43771;SDS011;59066;54.782;32.024;2022-10-16T12:51:22;21.25;;;10.63;;
43771;SDS011;59066;54.782;32.024;2022-10-16T12:54:00;12.15;;;7.55;;
43771;SDS011;59066;54.782;32.024;2022-10-16T12:59:50;17.77;;;8.98;;
43771;SDS011;59066;54.782;32.024;2022-10-16T13:21:51;16.38;;;7.57;;
43771;SDS011;59066;54.782;32.024;2022-10-16T13:32:47;16.73;;;8.43;;
43771;SDS011;59066;54.782;32.024;2022-10-16T13:35:26;17.50;;;11.48;;
43771;SDS011;59066;54.782;32.024;2022-10-16T13:38:05;17.35;;;11.05;;
43771;SDS011;59066;54.782;32.024;2022-10-16T13:40:48;16.02;;;9.48;;
43771;SDS011;59066;54.782;32.024;2022-10-16T13:46:23;14.60;;;9.07;;
43771;SDS011;59066;54.782;32.024;2022-10-16T13:49:01;14.63;;;7.13;;
43771;SDS011;59066;54.782;32.024;2022-10-16T13:54:25;32.20;;;19.15;;
43771;SDS011;59066;54.782;32.024;2022-10-16T13:56:55;24.48;;;15.57;;
43771;SDS011;59066;54.782;32.024;2022-10-16T13:59:48;22.88;;;15.45;;
43771;SDS011;59066;54.782;32.024;2022-10-16T14:02:25;26.13;;;13.65;;
43771;SDS011;59066;54.782;32.024;2022-10-16T14:04:54;16.90;;;11.43;;
43771;SDS011;59066;54.782;32.024;2022-10-16T14:07:24;15.13;;;8.98;;
43771;SDS011;59066;54.782;32.024;2022-10-16T14:09:55;13.70;;;8.93;;
43771;SDS011;59066;54.782;32.024;2022-10-16T14:12:23;10.75;;;7.18;;
43771;SDS011;59066;54.782;32.024;2022-10-16T14:14:53;21.85;;;10.50;;
43771;SDS011;59066;54.782;32.024;2022-10-16T14:17:28;11.82;;;6.70;;
43771;SDS011;59066;54.782;32.024;2022-10-16T14:19:59;15.32;;;7.45;;
43771;SDS011;59066;54.782;32.024;2022-10-16T14:22:36;14.45;;;7.75;;
43771;SDS011;59066;54.782;32.024;2022-10-16T14:27:57;13.57;;;8.55;;
43771;SDS011;59066;54.782;32.024;2022-10-16T14:31:02;14.77;;;8.70;;
43771;SDS011;59066;54.782;32.024;2022-10-16T14:33:35;14.02;;;9.35;;
43771;SDS011;59066;54.782;32.024;2022-10-16T14:38:37;20.60;;;9.45;;
43771;SDS011;59066;54.782;32.024;2022-10-16T14:41:06;16.50;;;11.98;;
43771;SDS011;59066;54.782;32.024;2022-10-16T14:43:34;15.52;;;9.00;;
43771;SDS011;59066;54.782;32.024;2022-10-16T14:46:06;15.07;;;9.80;;
43771;SDS011;59066;54.782;32.024;2022-10-16T14:48:42;14.43;;;7.35;;
43771;SDS011;59066;54.782;32.024;2022-10-16T14:51:14;14.25;;;6.95;;
43771;SDS011;59066;54.782;32.024;2022-10-16T14:53:49;16.10;;;8.52;;
43771;SDS011;59066;54.782;32.024;2022-10-16T14:56:21;17.55;;;8.07;;
43771;SDS011;59066;54.782;32.024;2022-10-16T14:58:51;10.73;;;5.88;;
43771;SDS011;59066;54.782;32.024;2022-10-16T15:01:20;11.40;;;5.90;;
43771;SDS011;59066;54.782;32.024;2022-10-16T15:03:53;14.63;;;6.75;;
43771;SDS011;59066;54.782;32.024;2022-10-16T15:06:21;12.18;;;7.38;;
43771;SDS011;59066;54.782;32.024;2022-10-16T15:08:49;11.43;;;6.50;;
43771;SDS011;59066;54.782;32.024;2022-10-16T15:11:17;9.27;;;6.47;;
43771;SDS011;59066;54.782;32.024;2022-10-16T15:13:46;14.55;;;8.05;;
43771;SDS011;59066;54.782;32.024;2022-10-16T15:16:14;10.10;;;6.05;;
43771;SDS011;59066;54.782;32.024;2022-10-16T15:18:44;14.25;;;8.05;;
43771;SDS011;59066;54.782;32.024;2022-10-16T15:21:20;14.00;;;7.43;;
43771;SDS011;59066;54.782;32.024;2022-10-16T15:23:53;14.57;;;8.60;;
43771;SDS011;59066;54.782;32.024;2022-10-16T15:26:20;12.35;;;7.07;;
43771;SDS011;59066;54.782;32.024;2022-10-16T15:28:52;12.95;;;7.32;;
43771;SDS011;59066;54.782;32.024;2022-10-16T15:31:20;13.30;;;8.13;;
43771;SDS011;59066;54.782;32.024;2022-10-16T15:33:49;15.68;;;8.48;;
43771;SDS011;59066;54.782;32.024;2022-10-16T15:39:04;14.82;;;7.70;;
43771;SDS011;59066;54.782;32.024;2022-10-16T15:41:37;15.73;;;7.70;;
43771;SDS011;59066;54.782;32.024;2022-10-16T15:44:04;14.75;;;7.80;;
43771;SDS011;59066;54.782;32.024;2022-10-16T15:46:38;11.45;;;7.50;;
43771;SDS011;59066;54.782;32.024;2022-10-16T15:49:05;25.58;;;14.10;;
43771;SDS011;59066;54.782;32.024;2022-10-16T15:51:33;22.83;;;13.95;;
43771;SDS011;59066;54.782;32.024;2022-10-16T15:54:04;19.27;;;11.20;;
43771;SDS011;59066;54.782;32.024;2022-10-16T15:56:32;23.02;;;11.60;;
43771;SDS011;59066;54.782;32.024;2022-10-16T15:59:00;16.02;;;10.10;;
43771;SDS011;59066;54.782;32.024;2022-10-16T16:01:31;21.00;;;10.82;;
43771;SDS011;59066;54.782;32.024;2022-10-16T16:04:00;17.27;;;8.93;;
43771;SDS011;59066;54.782;32.024;2022-10-16T16:06:32;15.60;;;8.23;;
43771;SDS011;59066;54.782;32.024;2022-10-16T16:09:01;12.68;;;8.48;;
43771;SDS011;59066;54.782;32.024;2022-10-16T16:11:28;11.90;;;8.30;;
43771;SDS011;59066;54.782;32.024;2022-10-16T16:13:58;11.18;;;7.43;;
43771;SDS011;59066;54.782;32.024;2022-10-16T16:16:31;12.60;;;8.02;;
43771;SDS011;59066;54.782;32.024;2022-10-16T16:19:04;14.32;;;7.95;;
43771;SDS011;59066;54.782;32.024;2022-10-16T16:21:34;13.25;;;7.45;;
43771;SDS011;59066;54.782;32.024;2022-10-16T16:24:02;13.88;;;6.80;;
43771;SDS011;59066;54.782;32.024;2022-10-16T16:26:35;10.02;;;5.53;;
43771;SDS011;59066;54.782;32.024;2022-10-16T16:29:11;12.90;;;7.38;;
43771;SDS011;59066;54.782;32.024;2022-10-16T16:31:40;9.27;;;5.80;;
43771;SDS011;59066;54.782;32.024;2022-10-16T16:34:09;9.77;;;5.32;;
43771;SDS011;59066;54.782;32.024;2022-10-16T16:36:37;14.75;;;5.95;;
43771;SDS011;59066;54.782;32.024;2022-10-16T16:41:40;31.02;;;6.43;;
43771;SDS011;59066;54.782;32.024;2022-10-16T16:44:08;8.60;;;4.30;;
43771;SDS011;59066;54.782;32.024;2022-10-16T16:46:38;9.27;;;4.53;;
43771;SDS011;59066;54.782;32.024;2022-10-16T16:49:06;10.13;;;4.80;;
43771;SDS011;59066;54.782;32.024;2022-10-16T16:51:33;10.98;;;5.72;;
43771;SDS011;59066;54.782;32.024;2022-10-16T16:54:02;8.10;;;4.40;;
43771;SDS011;59066;54.782;32.024;2022-10-16T16:56:30;7.35;;;3.70;;
43771;SDS011;59066;54.782;32.024;2022-10-16T16:58:57;13.05;;;4.38;;
43771;SDS011;59066;54.782;32.024;2022-10-16T17:01:25;9.05;;;4.20;;
43771;SDS011;59066;54.782;32.024;2022-10-16T17:03:54;9.00;;;4.18;;
43771;SDS011;59066;54.782;32.024;2022-10-16T17:06:24;10.50;;;3.92;;
43771;SDS011;59066;54.782;32.024;2022-10-16T17:08:54;7.80;;;3.75;;
43771;SDS011;59066;54.782;32.024;2022-10-16T17:11:22;9.48;;;4.22;;
43771;SDS011;59066;54.782;32.024;2022-10-16T17:13:54;8.98;;;3.83;;
43771;SDS011;59066;54.782;32.024;2022-10-16T17:16:23;5.05;;;3.45;;
43771;SDS011;59066;54.782;32.024;2022-10-16T17:18:53;24.15;;;5.85;;
43771;SDS011;59066;54.782;32.024;2022-10-16T17:21:20;10.35;;;4.25;;